createdAt,value
2018-05-03T00:07:26.898Z,20.17
2018-05-03T00:09:55.946Z,19.33
2018-05-03T00:12:24.224Z,20.37
2018-05-03T00:14:52.530Z,19.13
2018-05-03T00:17:20.806Z,19.10
2018-05-03T00:19:49.088Z,19.03
2018-05-03T00:22:17.423Z,18.33
2018-05-03T00:24:45.733Z,18.60
2018-05-03T00:27:13.969Z,19.33
2018-05-03T00:29:42.417Z,19.17
2018-05-03T00:32:10.719Z,19.13
2018-05-03T00:34:38.952Z,19.47
2018-05-03T00:37:07.357Z,20.50
2018-05-03T00:39:35.647Z,19.57
2018-05-03T00:42:03.890Z,18.57
2018-05-03T00:44:32.214Z,19.77
2018-05-03T00:47:00.520Z,19.73
2018-05-03T00:49:29.554Z,19.57
2018-05-03T00:51:57.959Z,19.57
2018-05-03T00:54:38.181Z,19.80
2018-05-03T00:57:06.482Z,18.87
2018-05-03T00:59:34.774Z,19.07
2018-05-03T01:02:03.045Z,19.73
2018-05-03T01:04:32.164Z,19.53
2018-05-03T01:07:00.542Z,19.53
2018-05-03T01:09:29.678Z,19.20
2018-05-03T01:30:01.293Z,20.03
2018-05-03T01:32:29.614Z,20.67
2018-05-03T01:38:09.621Z,19.80
2018-05-03T01:40:37.960Z,20.47
2018-05-03T01:43:06.208Z,20.57
2018-05-03T01:45:34.560Z,21.47
2018-05-03T01:48:03.178Z,20.70
2018-05-03T01:50:31.426Z,20.70
2018-05-03T01:52:59.734Z,22.33
2018-05-03T01:55:28.126Z,23.70
2018-05-03T01:57:56.443Z,21.83
2018-05-03T02:00:25.506Z,22.93
2018-05-03T02:20:55.823Z,22.33
2018-05-03T02:23:24.094Z,21.07
2018-05-03T02:25:52.369Z,23.30
2018-05-03T02:28:20.703Z,22.10
2018-05-03T02:48:51.136Z,21.27
2018-05-03T02:51:19.533Z,22.87
2018-05-03T02:53:48.561Z,23.00
2018-05-03T02:56:16.846Z,21.53
2018-05-03T02:58:57.143Z,22.00
2018-05-03T03:01:43.049Z,21.57
2018-05-03T03:04:29.299Z,21.50
2018-05-03T03:07:15.297Z,23.80
2018-05-03T03:13:34.767Z,23.27
2018-05-03T03:16:20.845Z,21.33
2018-05-03T03:19:06.869Z,22.53
2018-05-03T03:21:53.867Z,22.57
2018-05-03T03:24:38.709Z,22.23
2018-05-03T03:27:38.099Z,21.93
2018-05-03T03:30:18.283Z,21.33
2018-05-03T03:32:59.262Z,20.20
2018-05-03T03:35:57.281Z,20.37
2018-05-03T03:38:37.732Z,19.87
2018-05-03T03:41:17.782Z,19.43
2018-05-03T04:01:48.666Z,19.17
2018-05-03T04:04:16.979Z,19.43
2018-05-03T04:06:45.299Z,17.97
2018-05-03T04:09:13.747Z,19.67
2018-05-03T04:11:42.063Z,18.00
2018-05-03T04:14:10.298Z,18.27
2018-05-03T04:16:38.911Z,18.87
2018-05-03T04:19:19.140Z,18.40
2018-05-03T04:21:59.500Z,18.00
2018-05-03T04:24:39.622Z,17.20
2018-05-03T04:45:11.511Z,18.87
2018-05-03T04:47:40.603Z,18.83
2018-05-03T04:50:08.866Z,18.33
2018-05-03T04:52:37.211Z,16.50
2018-05-03T04:55:05.449Z,18.17
2018-05-03T05:15:38.564Z,18.37
2018-05-03T05:18:07.602Z,18.43
2018-05-03T05:20:35.902Z,17.93
2018-05-03T05:23:04.162Z,17.73
2018-05-03T05:25:32.454Z,17.10
2018-05-03T05:28:00.723Z,17.60
2018-05-03T05:33:27.476Z,17.87
2018-05-03T05:35:55.894Z,17.33
2018-05-03T05:56:29.334Z,16.57
2018-05-03T06:01:56.151Z,17.53
2018-05-03T06:04:24.443Z,17.07
2018-05-03T06:06:52.712Z,17.87
2018-05-03T06:27:24.193Z,18.17
2018-05-03T06:29:52.486Z,19.87
2018-05-03T06:32:20.757Z,16.53
2018-05-03T06:34:49.055Z,13.57
2018-05-03T06:37:17.364Z,13.07
2018-05-03T06:39:45.601Z,13.07
2018-05-03T07:00:17.702Z,10.50
2018-05-03T07:02:45.988Z,10.97
2018-05-03T07:05:15.059Z,10.70
2018-05-03T07:10:41.527Z,10.30
2018-05-03T07:13:10.540Z,10.03
2018-05-03T07:15:38.814Z,9.90
2018-05-03T07:18:08.026Z,10.10
2018-05-03T07:20:37.026Z,9.50
2018-05-03T07:23:05.269Z,9.80
2018-05-03T07:25:33.613Z,10.00
2018-05-03T07:28:01.889Z,9.63
2018-05-03T07:30:30.219Z,10.10
2018-05-03T07:51:04.101Z,9.77
2018-05-03T07:53:32.411Z,9.00
2018-05-03T07:56:00.687Z,9.30
2018-05-03T07:58:29.117Z,9.33
2018-05-03T08:00:58.156Z,8.80
2018-05-03T08:03:26.382Z,8.73
2018-05-03T08:05:55.792Z,8.23
2018-05-03T08:08:24.075Z,8.97
2018-05-03T08:10:52.366Z,9.03
2018-05-03T08:13:21.628Z,8.90
2018-05-03T08:15:49.922Z,8.10
2018-05-03T08:18:18.162Z,8.27
2018-05-03T08:20:46.679Z,8.43
2018-05-03T08:23:14.936Z,8.30
2018-05-03T08:25:43.204Z,8.07
2018-05-03T08:28:11.791Z,7.93
2018-05-03T08:30:40.304Z,7.47
2018-05-03T08:33:08.561Z,7.60
2018-05-03T08:35:36.863Z,6.77
2018-05-03T08:38:05.154Z,7.17
2018-05-03T08:40:33.379Z,6.70
2018-05-03T08:43:01.667Z,7.20
2018-05-03T08:45:29.935Z,7.13
2018-05-03T08:47:58.303Z,6.47
2018-05-03T08:50:26.861Z,6.67
2018-05-03T09:11:00.627Z,6.20
2018-05-03T09:13:29.713Z,6.90
2018-05-03T09:34:02.427Z,6.53
2018-05-03T09:36:31.587Z,7.87
2018-05-03T09:39:00.486Z,5.93
2018-05-03T09:41:29.613Z,6.33
2018-05-03T09:43:58.648Z,5.70
2018-05-03T09:46:26.954Z,6.90
2018-05-03T09:48:55.239Z,6.70
2018-05-03T09:51:23.567Z,6.70
2018-05-03T09:53:52.614Z,6.90
2018-05-03T09:56:20.927Z,6.73
2018-05-03T09:58:49.209Z,6.73
2018-05-03T10:01:18.213Z,6.00
2018-05-03T10:03:47.245Z,7.00
2018-05-03T10:06:15.538Z,7.00
2018-05-03T10:08:43.769Z,6.30
2018-05-03T10:11:12.803Z,6.87
2018-05-03T10:31:44.698Z,7.00
2018-05-03T10:34:13.003Z,7.30
2018-05-03T10:36:41.226Z,7.20
2018-05-03T10:39:09.932Z,7.73
2018-05-03T10:41:38.170Z,7.70
2018-05-03T10:44:07.206Z,7.27
2018-05-03T10:46:35.470Z,8.47
2018-05-03T10:49:04.602Z,7.50
2018-05-03T10:51:33.950Z,7.90
2018-05-03T11:12:04.617Z,7.07
2018-05-03T11:14:32.957Z,7.03
2018-05-03T11:17:01.675Z,8.60
2018-05-03T11:19:30.003Z,8.17
2018-05-03T11:21:58.351Z,8.07
2018-05-03T11:24:27.338Z,7.50
2018-05-03T11:26:55.828Z,9.23
2018-05-03T11:29:24.090Z,7.23
2018-05-03T11:31:52.317Z,7.40
2018-05-03T11:34:20.655Z,7.93
2018-05-03T11:36:48.929Z,7.60
2018-05-03T11:39:17.469Z,7.43
2018-05-03T11:41:45.733Z,7.20
2018-05-03T11:44:13.968Z,8.00
2018-05-03T11:46:42.347Z,8.40
2018-05-03T11:49:10.636Z,7.63
2018-05-03T11:51:38.935Z,8.93
2018-05-03T11:54:07.160Z,9.50
2018-05-03T11:56:35.536Z,8.87
2018-05-03T11:59:03.852Z,9.80
2018-05-03T12:01:32.355Z,7.90
2018-05-03T12:04:00.643Z,8.20
2018-05-03T12:06:30.849Z,8.30
2018-05-03T12:08:59.158Z,8.37
2018-05-03T12:11:28.213Z,8.23
2018-05-03T12:13:56.494Z,10.90
2018-05-03T12:16:24.762Z,8.83
2018-05-03T12:18:53.058Z,9.33
2018-05-03T12:21:21.289Z,9.77
2018-05-03T12:23:49.732Z,8.37
2018-05-03T12:26:18.251Z,8.23
2018-05-03T12:28:46.466Z,9.50
2018-05-03T12:31:14.742Z,8.43
2018-05-03T12:33:43.158Z,9.10
2018-05-03T12:36:12.337Z,8.93
2018-05-03T12:38:40.590Z,8.40
2018-05-03T12:41:08.927Z,7.80
2018-05-03T12:43:37.203Z,8.73
2018-05-03T12:46:05.491Z,8.27
2018-05-03T12:48:33.794Z,9.17
2018-05-03T12:51:02.818Z,9.60
2018-05-03T12:53:31.091Z,8.30
2018-05-03T12:56:00.146Z,8.10
2018-05-03T12:58:28.414Z,8.00
2018-05-03T13:00:56.675Z,7.30
2018-05-03T13:03:25.216Z,7.40
2018-05-03T13:05:53.508Z,8.20
2018-05-03T13:08:22.725Z,8.23
2018-05-03T13:10:51.015Z,8.23
2018-05-03T13:13:19.246Z,9.80
2018-05-03T13:15:48.319Z,8.23
2018-05-03T13:18:16.712Z,7.97
2018-05-03T13:20:44.942Z,8.27
2018-05-03T13:23:13.225Z,7.97
2018-05-03T13:25:42.334Z,8.57
2018-05-03T13:28:10.581Z,9.23
2018-05-03T13:48:41.634Z,10.13
2018-05-03T13:51:09.919Z,7.90
2018-05-03T14:11:43.652Z,9.43
2018-05-03T14:14:11.945Z,8.43
2018-05-03T14:16:40.223Z,9.10
2018-05-03T14:19:09.626Z,9.00
2018-05-03T14:39:40.556Z,8.87
2018-05-03T14:42:09.007Z,9.37
2018-05-03T14:44:37.255Z,9.60
2018-05-03T14:47:06.327Z,10.37
2018-05-03T15:07:37.270Z,10.77
2018-05-03T15:10:05.768Z,10.53
2018-05-03T15:12:34.023Z,9.97
2018-05-03T15:15:02.279Z,9.87
2018-05-03T15:17:30.646Z,10.90
2018-05-03T15:19:59.677Z,10.80
2018-05-03T15:22:27.942Z,10.17
2018-05-03T15:24:56.443Z,12.80
2018-05-03T15:45:28.571Z,10.30
2018-05-03T15:47:57.279Z,9.53
2018-05-03T15:50:25.587Z,10.80
2018-05-03T15:52:53.817Z,10.63
2018-05-03T15:55:22.502Z,10.30
2018-05-03T15:57:50.740Z,10.80
2018-05-03T16:00:19.026Z,10.43
2018-05-03T16:02:47.547Z,11.13
2018-05-03T16:05:15.855Z,11.57
2018-05-03T16:07:44.893Z,10.60
2018-05-03T16:10:13.295Z,10.87
2018-05-03T16:12:41.540Z,10.20
2018-05-03T16:33:14.399Z,9.10
2018-05-03T16:35:42.662Z,8.87
2018-05-03T16:38:10.922Z,9.47
2018-05-03T16:40:39.368Z,9.57
2018-05-03T16:43:08.448Z,8.90
2018-05-03T17:03:42.652Z,9.20
2018-05-03T17:06:10.937Z,9.53
2018-05-03T17:26:41.946Z,8.07
2018-05-03T17:29:10.230Z,9.43
2018-05-03T17:31:38.499Z,9.10
2018-05-03T17:34:06.854Z,9.37
2018-05-03T17:36:35.091Z,9.60
2018-05-03T17:39:03.457Z,10.37
2018-05-03T17:59:34.430Z,10.33
2018-05-03T18:02:03.491Z,9.80
2018-05-03T18:04:31.783Z,10.60
2018-05-03T18:07:01.270Z,10.23
2018-05-03T18:09:29.581Z,10.00
2018-05-03T18:11:58.599Z,9.80
2018-05-03T18:14:27.003Z,10.00
2018-05-03T18:16:55.319Z,10.20
2018-05-03T18:19:23.594Z,9.83
2018-05-03T18:21:51.910Z,9.90
2018-05-03T18:24:20.977Z,9.97
2018-05-03T18:26:49.245Z,10.27
2018-05-03T18:29:17.770Z,9.23
2018-05-03T18:31:46.029Z,9.67
2018-05-03T18:34:14.562Z,9.83
2018-05-03T18:36:43.912Z,9.50
2018-05-03T18:39:12.136Z,11.13
2018-05-03T18:41:40.479Z,9.13
2018-05-03T19:02:11.614Z,9.53
2018-05-03T19:04:39.912Z,9.10
2018-05-03T19:07:08.133Z,9.93
2018-05-03T19:09:37.167Z,9.67
2018-05-03T19:12:05.438Z,11.03
2018-05-03T19:14:33.744Z,9.40
2018-05-03T19:17:02.379Z,9.43
2018-05-03T19:37:34.742Z,8.67
2018-05-03T19:40:03.038Z,8.23
2018-05-03T19:42:31.269Z,8.03
2018-05-03T19:44:59.554Z,9.37
2018-05-03T20:05:31.236Z,9.17
2018-05-03T20:07:59.505Z,8.67
2018-05-03T20:28:34.081Z,8.10
2018-05-03T20:31:03.424Z,8.83
2018-05-03T20:33:31.691Z,8.20
2018-05-03T20:35:59.978Z,9.30
2018-05-03T20:56:33.015Z,8.40
2018-05-03T20:59:02.130Z,8.73
2018-05-03T21:01:30.435Z,9.83
2018-05-03T21:03:58.661Z,9.23
2018-05-03T21:06:26.970Z,8.30
2018-05-03T21:08:55.233Z,8.60
2018-05-03T21:11:23.498Z,8.90
2018-05-03T21:13:52.664Z,7.70
2018-05-03T21:16:20.926Z,9.67
2018-05-03T21:18:49.205Z,8.37
2018-05-03T21:21:17.702Z,8.50
2018-05-03T21:23:45.965Z,8.50
2018-05-03T21:26:14.326Z,7.93
2018-05-03T21:28:42.655Z,7.90
2018-05-03T21:31:10.954Z,7.80
2018-05-03T21:33:39.247Z,9.03
2018-05-03T21:36:07.727Z,7.90
2018-05-03T21:38:36.791Z,8.60
2018-05-03T22:02:08.304Z,8.30
2018-05-03T22:04:36.604Z,8.20
2018-05-03T22:07:05.664Z,8.00
2018-05-03T22:09:33.937Z,7.63
2018-05-03T22:12:02.223Z,7.90
2018-05-03T22:14:30.489Z,7.93
2018-05-03T22:35:02.650Z,9.40
2018-05-03T22:37:30.948Z,8.90
2018-05-03T22:39:59.215Z,8.00
2018-05-03T22:42:27.563Z,7.73
2018-05-03T22:44:55.830Z,8.27
2018-05-03T23:05:25.661Z,9.30
2018-05-03T23:07:53.903Z,9.10
2018-05-03T23:10:22.277Z,9.77
2018-05-03T23:12:50.573Z,10.43
2018-05-03T23:15:18.850Z,9.47
2018-05-03T23:17:47.135Z,9.70
2018-05-03T23:20:15.605Z,9.57
2018-05-03T23:22:43.915Z,9.73
2018-05-03T23:25:12.148Z,9.67
2018-05-03T23:27:40.478Z,9.63
2018-05-03T23:30:08.767Z,9.83
2018-05-03T23:32:37.050Z,9.57
2018-05-03T23:35:05.317Z,9.73
2018-05-03T23:37:33.573Z,8.80
2018-05-03T23:40:01.904Z,9.37
2018-05-03T23:42:30.132Z,10.00
2018-05-03T23:44:58.376Z,9.90
2018-05-03T23:47:27.450Z,11.23
